sensor_id;sensor_type;location;lat;lon;timestamp;temperature;humidity
39925;DHT22;25592;49.986;11.618;2024-03-08T00:00:43;4.90;92.60
39925;DHT22;25592;49.986;11.618;2024-03-08T00:03:29;4.90;93.20
39925;DHT22;25592;49.986;11.618;2024-03-08T00:06:14;4.80;92.80
39925;DHT22;25592;49.986;11.618;2024-03-08T00:09:01;4.80;93.40
39925;DHT22;25592;49.986;11.618;2024-03-08T00:11:46;4.80;93.00
39925;DHT22;25592;49.986;11.618;2024-03-08T00:14:32;4.80;93.10
39925;DHT22;25592;49.986;11.618;2024-03-08T00:17:18;4.80;93.20
39925;DHT22;25592;49.986;11.618;2024-03-08T00:20:03;4.80;93.10
39925;DHT22;25592;49.986;11.618;2024-03-08T00:22:53;4.70;93.10
39925;DHT22;25592;49.986;11.618;2024-03-08T00:25:38;4.80;93.40
39925;DHT22;25592;49.986;11.618;2024-03-08T00:28:24;4.80;93.40
39925;DHT22;25592;49.986;11.618;2024-03-08T00:31:10;4.90;93.40
39925;DHT22;25592;49.986;11.618;2024-03-08T00:33:55;4.90;93.30
39925;DHT22;25592;49.986;11.618;2024-03-08T00:36:42;4.80;93.20
39925;DHT22;25592;49.986;11.618;2024-03-08T00:39:27;4.80;93.30
39925;DHT22;25592;49.986;11.618;2024-03-08T00:42:13;4.80;93.40
39925;DHT22;25592;49.986;11.618;2024-03-08T00:44:58;4.70;93.00
39925;DHT22;25592;49.986;11.618;2024-03-08T00:47:44;4.70;93.30
39925;DHT22;25592;49.986;11.618;2024-03-08T00:50:31;4.70;93.20
39925;DHT22;25592;49.986;11.618;2024-03-08T00:53:17;4.70;93.20
39925;DHT22;25592;49.986;11.618;2024-03-08T00:56:03;4.80;93.30
39925;DHT22;25592;49.986;11.618;2024-03-08T00:58:49;4.70;93.20
39925;DHT22;25592;49.986;11.618;2024-03-08T01:01:34;4.50;93.00
39925;DHT22;25592;49.986;11.618;2024-03-08T01:04:20;4.60;93.50
39925;DHT22;25592;49.986;11.618;2024-03-08T01:07:06;4.60;93.50
39925;DHT22;25592;49.986;11.618;2024-03-08T01:09:52;4.60;93.10
39925;DHT22;25592;49.986;11.618;2024-03-08T01:12:38;4.60;93.10
39925;DHT22;25592;49.986;11.618;2024-03-08T01:15:24;4.50;93.30
39925;DHT22;25592;49.986;11.618;2024-03-08T01:18:10;4.60;93.30
39925;DHT22;25592;49.986;11.618;2024-03-08T01:20:56;4.50;93.30
39925;DHT22;25592;49.986;11.618;2024-03-08T01:23:41;4.40;92.90
39925;DHT22;25592;49.986;11.618;2024-03-08T01:26:28;4.40;93.20
39925;DHT22;25592;49.986;11.618;2024-03-08T01:29:14;4.20;93.10
39925;DHT22;25592;49.986;11.618;2024-03-08T01:31:59;4.20;93.20
39925;DHT22;25592;49.986;11.618;2024-03-08T01:34:47;4.20;93.10
39925;DHT22;25592;49.986;11.618;2024-03-08T01:37:32;4.10;93.40
39925;DHT22;25592;49.986;11.618;2024-03-08T01:40:18;4.10;93.40
39925;DHT22;25592;49.986;11.618;2024-03-08T01:43:21;4.20;93.50
39925;DHT22;25592;49.986;11.618;2024-03-08T01:46:07;4.20;93.30
39925;DHT22;25592;49.986;11.618;2024-03-08T01:48:54;4.20;93.40
39925;DHT22;25592;49.986;11.618;2024-03-08T01:51:41;4.10;93.50
39925;DHT22;25592;49.986;11.618;2024-03-08T01:54:27;4.10;93.60
39925;DHT22;25592;49.986;11.618;2024-03-08T01:57:12;4.10;93.40
39925;DHT22;25592;49.986;11.618;2024-03-08T02:00:00;4.10;93.70
39925;DHT22;25592;49.986;11.618;2024-03-08T02:02:51;4.20;93.60
39925;DHT22;25592;49.986;11.618;2024-03-08T02:05:38;4.10;93.70
39925;DHT22;25592;49.986;11.618;2024-03-08T02:08:25;4.10;93.60
39925;DHT22;25592;49.986;11.618;2024-03-08T02:11:11;4.10;93.50
39925;DHT22;25592;49.986;11.618;2024-03-08T02:13:57;4.10;93.60
39925;DHT22;25592;49.986;11.618;2024-03-08T02:16:43;4.10;93.60
39925;DHT22;25592;49.986;11.618;2024-03-08T02:19:29;4.20;93.70
39925;DHT22;25592;49.986;11.618;2024-03-08T02:22:14;4.20;93.50
39925;DHT22;25592;49.986;11.618;2024-03-08T02:25:00;4.10;93.70
39925;DHT22;25592;49.986;11.618;2024-03-08T02:27:47;4.10;93.90
39925;DHT22;25592;49.986;11.618;2024-03-08T02:30:32;4.00;93.90
39925;DHT22;25592;49.986;11.618;2024-03-08T02:33:18;4.10;94.10
39925;DHT22;25592;49.986;11.618;2024-03-08T02:36:05;4.00;94.20
39925;DHT22;25592;49.986;11.618;2024-03-08T02:38:51;4.00;94.20
39925;DHT22;25592;49.986;11.618;2024-03-08T02:41:37;4.00;94.10
39925;DHT22;25592;49.986;11.618;2024-03-08T02:44:22;4.00;94.10
39925;DHT22;25592;49.986;11.618;2024-03-08T02:47:08;4.00;94.00
39925;DHT22;25592;49.986;11.618;2024-03-08T02:49:53;3.90;94.10
39925;DHT22;25592;49.986;11.618;2024-03-08T02:52:39;3.90;93.90
39925;DHT22;25592;49.986;11.618;2024-03-08T02:55:24;3.90;93.90
39925;DHT22;25592;49.986;11.618;2024-03-08T02:58:11;3.90;94.10
39925;DHT22;25592;49.986;11.618;2024-03-08T03:00:56;4.00;93.80
39925;DHT22;25592;49.986;11.618;2024-03-08T03:03:42;3.90;94.00
39925;DHT22;25592;49.986;11.618;2024-03-08T03:06:28;3.90;93.90
39925;DHT22;25592;49.986;11.618;2024-03-08T03:09:13;3.90;94.10
39925;DHT22;25592;49.986;11.618;2024-03-08T03:12:01;3.90;93.90
39925;DHT22;25592;49.986;11.618;2024-03-08T03:14:48;3.90;94.00
39925;DHT22;25592;49.986;11.618;2024-03-08T03:17:33;3.90;93.90
39925;DHT22;25592;49.986;11.618;2024-03-08T03:20:19;3.90;93.90
39925;DHT22;25592;49.986;11.618;2024-03-08T03:23:11;3.90;94.00
39925;DHT22;25592;49.986;11.618;2024-03-08T03:26:01;3.90;94.00
39925;DHT22;25592;49.986;11.618;2024-03-08T03:28:47;3.90;94.20
39925;DHT22;25592;49.986;11.618;2024-03-08T03:31:33;3.90;94.40
39925;DHT22;25592;49.986;11.618;2024-03-08T03:34:19;3.70;94.30
39925;DHT22;25592;49.986;11.618;2024-03-08T03:37:05;3.70;94.40
39925;DHT22;25592;49.986;11.618;2024-03-08T03:39:51;3.70;94.50
39925;DHT22;25592;49.986;11.618;2024-03-08T03:42:38;3.70;94.50
39925;DHT22;25592;49.986;11.618;2024-03-08T03:45:24;3.70;94.40
39925;DHT22;25592;49.986;11.618;2024-03-08T03:48:09;3.80;94.40
39925;DHT22;25592;49.986;11.618;2024-03-08T03:50:56;3.90;94.40
39925;DHT22;25592;49.986;11.618;2024-03-08T03:53:42;3.80;94.30
39925;DHT22;25592;49.986;11.618;2024-03-08T03:56:27;3.90;94.30
39925;DHT22;25592;49.986;11.618;2024-03-08T03:59:12;3.80;94.30
39925;DHT22;25592;49.986;11.618;2024-03-08T04:01:58;3.80;94.30
39925;DHT22;25592;49.986;11.618;2024-03-08T04:04:43;3.70;94.30
39925;DHT22;25592;49.986;11.618;2024-03-08T04:07:30;3.60;94.60
39925;DHT22;25592;49.986;11.618;2024-03-08T04:10:16;3.60;94.60
39925;DHT22;25592;49.986;11.618;2024-03-08T04:13:02;3.30;94.90
39925;DHT22;25592;49.986;11.618;2024-03-08T04:15:48;3.30;95.00
39925;DHT22;25592;49.986;11.618;2024-03-08T04:18:35;3.50;94.90
39925;DHT22;25592;49.986;11.618;2024-03-08T04:21:23;3.20;95.70
39925;DHT22;25592;49.986;11.618;2024-03-08T04:24:08;3.30;95.90
39925;DHT22;25592;49.986;11.618;2024-03-08T04:26:54;3.40;95.90
39925;DHT22;25592;49.986;11.618;2024-03-08T04:29:40;3.40;96.10
39925;DHT22;25592;49.986;11.618;2024-03-08T04:32:27;3.40;96.20
39925;DHT22;25592;49.986;11.618;2024-03-08T04:35:15;3.40;96.50
39925;DHT22;25592;49.986;11.618;2024-03-08T04:38:00;3.40;96.40
39925;DHT22;25592;49.986;11.618;2024-03-08T04:40:45;3.50;96.20
39925;DHT22;25592;49.986;11.618;2024-03-08T04:43:31;3.50;96.20
39925;DHT22;25592;49.986;11.618;2024-03-08T04:46:16;3.60;96.10
39925;DHT22;25592;49.986;11.618;2024-03-08T04:49:02;3.70;96.00
39925;DHT22;25592;49.986;11.618;2024-03-08T04:51:47;3.80;95.80
39925;DHT22;25592;49.986;11.618;2024-03-08T04:54:33;3.80;96.00
39925;DHT22;25592;49.986;11.618;2024-03-08T04:57:18;3.70;95.80
39925;DHT22;25592;49.986;11.618;2024-03-08T05:00:04;3.80;95.80
39925;DHT22;25592;49.986;11.618;2024-03-08T05:02:56;3.80;95.80
39925;DHT22;25592;49.986;11.618;2024-03-08T05:05:42;3.80;95.80
39925;DHT22;25592;49.986;11.618;2024-03-08T05:08:28;3.80;95.60
39925;DHT22;25592;49.986;11.618;2024-03-08T05:11:13;3.80;95.60
39925;DHT22;25592;49.986;11.618;2024-03-08T05:14:00;3.60;95.50
39925;DHT22;25592;49.986;11.618;2024-03-08T05:16:46;3.70;95.60
39925;DHT22;25592;49.986;11.618;2024-03-08T05:19:36;3.60;95.80
39925;DHT22;25592;49.986;11.618;2024-03-08T05:22:22;3.70;95.70
39925;DHT22;25592;49.986;11.618;2024-03-08T05:25:08;3.80;95.60
39925;DHT22;25592;49.986;11.618;2024-03-08T05:27:53;3.80;95.60
39925;DHT22;25592;49.986;11.618;2024-03-08T05:30:39;3.80;95.60
39925;DHT22;25592;49.986;11.618;2024-03-08T05:33:24;3.80;95.80
39925;DHT22;25592;49.986;11.618;2024-03-08T05:36:09;3.80;95.90
39925;DHT22;25592;49.986;11.618;2024-03-08T05:38:57;3.80;95.80
39925;DHT22;25592;49.986;11.618;2024-03-08T05:41:43;3.90;96.00
39925;DHT22;25592;49.986;11.618;2024-03-08T05:44:28;3.90;96.10
39925;DHT22;25592;49.986;11.618;2024-03-08T05:47:15;3.90;96.30
39925;DHT22;25592;49.986;11.618;2024-03-08T05:50:01;3.90;96.30
39925;DHT22;25592;49.986;11.618;2024-03-08T05:52:46;3.90;96.40
39925;DHT22;25592;49.986;11.618;2024-03-08T05:55:35;3.90;96.50
39925;DHT22;25592;49.986;11.618;2024-03-08T05:58:20;4.00;96.50
39925;DHT22;25592;49.986;11.618;2024-03-08T06:01:06;3.90;96.70
39925;DHT22;25592;49.986;11.618;2024-03-08T06:03:53;4.00;96.70
39925;DHT22;25592;49.986;11.618;2024-03-08T06:06:40;4.00;96.70
39925;DHT22;25592;49.986;11.618;2024-03-08T06:09:26;4.00;96.80
39925;DHT22;25592;49.986;11.618;2024-03-08T06:12:12;4.10;96.80
39925;DHT22;25592;49.986;11.618;2024-03-08T06:14:57;4.10;96.70
39925;DHT22;25592;49.986;11.618;2024-03-08T06:17:43;4.10;96.70
39925;DHT22;25592;49.986;11.618;2024-03-08T06:20:28;4.00;96.80
39925;DHT22;25592;49.986;11.618;2024-03-08T06:23:14;4.10;96.70
39925;DHT22;25592;49.986;11.618;2024-03-08T06:26:07;4.00;96.70
39925;DHT22;25592;49.986;11.618;2024-03-08T06:28:53;4.10;96.70
39925;DHT22;25592;49.986;11.618;2024-03-08T06:31:38;4.40;96.70
39925;DHT22;25592;49.986;11.618;2024-03-08T06:34:24;4.40;96.60
39925;DHT22;25592;49.986;11.618;2024-03-08T06:37:10;4.30;96.80
39925;DHT22;25592;49.986;11.618;2024-03-08T06:39:55;4.30;96.70
39925;DHT22;25592;49.986;11.618;2024-03-08T06:42:41;4.40;96.70
39925;DHT22;25592;49.986;11.618;2024-03-08T06:45:27;4.50;96.70
39925;DHT22;25592;49.986;11.618;2024-03-08T06:48:17;4.40;96.70
39925;DHT22;25592;49.986;11.618;2024-03-08T06:51:03;4.50;96.60
39925;DHT22;25592;49.986;11.618;2024-03-08T06:53:48;4.60;96.80
39925;DHT22;25592;49.986;11.618;2024-03-08T06:56:37;4.60;96.70
39925;DHT22;25592;49.986;11.618;2024-03-08T06:59:22;4.60;96.70
39925;DHT22;25592;49.986;11.618;2024-03-08T07:02:08;4.60;96.60
39925;DHT22;25592;49.986;11.618;2024-03-08T07:04:54;4.60;96.70
39925;DHT22;25592;49.986;11.618;2024-03-08T07:07:40;4.60;96.90
39925;DHT22;25592;49.986;11.618;2024-03-08T07:10:27;4.70;96.80
39925;DHT22;25592;49.986;11.618;2024-03-08T07:13:14;4.70;96.90
39925;DHT22;25592;49.986;11.618;2024-03-08T07:15:59;4.70;96.90
39925;DHT22;25592;49.986;11.618;2024-03-08T07:18:45;4.70;96.80
39925;DHT22;25592;49.986;11.618;2024-03-08T07:21:31;4.80;96.70
39925;DHT22;25592;49.986;11.618;2024-03-08T07:24:17;4.80;96.60
39925;DHT22;25592;49.986;11.618;2024-03-08T07:27:04;4.90;96.60
39925;DHT22;25592;49.986;11.618;2024-03-08T07:29:49;4.90;96.60
39925;DHT22;25592;49.986;11.618;2024-03-08T07:32:35;4.90;96.70
39925;DHT22;25592;49.986;11.618;2024-03-08T07:35:21;5.10;96.50
39925;DHT22;25592;49.986;11.618;2024-03-08T07:38:07;5.10;96.40
39925;DHT22;25592;49.986;11.618;2024-03-08T07:40:53;5.20;96.20
39925;DHT22;25592;49.986;11.618;2024-03-08T07:43:38;5.20;96.10
39925;DHT22;25592;49.986;11.618;2024-03-08T07:46:24;5.20;96.00
39925;DHT22;25592;49.986;11.618;2024-03-08T07:49:10;5.30;95.90
39925;DHT22;25592;49.986;11.618;2024-03-08T07:51:57;5.40;95.90
39925;DHT22;25592;49.986;11.618;2024-03-08T07:54:42;5.40;96.10
39925;DHT22;25592;49.986;11.618;2024-03-08T07:57:29;5.50;95.90
39925;DHT22;25592;49.986;11.618;2024-03-08T08:00:15;5.60;95.90
39925;DHT22;25592;49.986;11.618;2024-03-08T08:03:04;5.60;95.70
39925;DHT22;25592;49.986;11.618;2024-03-08T08:05:49;5.70;95.50
39925;DHT22;25592;49.986;11.618;2024-03-08T08:08:35;5.80;95.40
39925;DHT22;25592;49.986;11.618;2024-03-08T08:11:22;5.90;95.50
39925;DHT22;25592;49.986;11.618;2024-03-08T08:14:07;5.80;95.30
39925;DHT22;25592;49.986;11.618;2024-03-08T08:16:54;5.90;95.30
39925;DHT22;25592;49.986;11.618;2024-03-08T08:19:41;5.80;95.00
39925;DHT22;25592;49.986;11.618;2024-03-08T08:22:26;5.80;95.20
39925;DHT22;25592;49.986;11.618;2024-03-08T08:25:12;5.90;95.30
39925;DHT22;25592;49.986;11.618;2024-03-08T08:27:58;5.80;95.30
39925;DHT22;25592;49.986;11.618;2024-03-08T08:30:44;6.00;95.30
39925;DHT22;25592;49.986;11.618;2024-03-08T08:33:30;6.10;95.30
39925;DHT22;25592;49.986;11.618;2024-03-08T08:36:15;6.10;95.40
39925;DHT22;25592;49.986;11.618;2024-03-08T08:39:01;6.40;95.70
39925;DHT22;25592;49.986;11.618;2024-03-08T08:41:48;6.50;94.90
39925;DHT22;25592;49.986;11.618;2024-03-08T08:44:33;6.50;94.60
39925;DHT22;25592;49.986;11.618;2024-03-08T08:47:20;6.70;94.70
39925;DHT22;25592;49.986;11.618;2024-03-08T08:50:06;6.90;94.50
39925;DHT22;25592;49.986;11.618;2024-03-08T08:52:51;7.00;94.60
39925;DHT22;25592;49.986;11.618;2024-03-08T08:55:40;7.10;94.10
39925;DHT22;25592;49.986;11.618;2024-03-08T08:58:25;7.10;93.90
39925;DHT22;25592;49.986;11.618;2024-03-08T09:01:11;7.20;94.00
39925;DHT22;25592;49.986;11.618;2024-03-08T09:03:57;7.20;93.80
39925;DHT22;25592;49.986;11.618;2024-03-08T09:06:42;7.30;93.90
39925;DHT22;25592;49.986;11.618;2024-03-08T09:09:27;7.50;94.00
39925;DHT22;25592;49.986;11.618;2024-03-08T09:12:14;7.60;93.70
39925;DHT22;25592;49.986;11.618;2024-03-08T09:15:00;7.70;93.60
39925;DHT22;25592;49.986;11.618;2024-03-08T09:17:46;7.70;93.50
39925;DHT22;25592;49.986;11.618;2024-03-08T09:20:33;7.90;93.40
39925;DHT22;25592;49.986;11.618;2024-03-08T09:23:22;7.90;93.20
39925;DHT22;25592;49.986;11.618;2024-03-08T09:26:07;8.10;93.20
39925;DHT22;25592;49.986;11.618;2024-03-08T09:29:06;8.20;93.10
39925;DHT22;25592;49.986;11.618;2024-03-08T09:31:52;8.30;93.10
39925;DHT22;25592;49.986;11.618;2024-03-08T09:34:37;8.40;93.00
39925;DHT22;25592;49.986;11.618;2024-03-08T09:37:23;8.30;93.00
39925;DHT22;25592;49.986;11.618;2024-03-08T09:40:08;8.50;93.10
39925;DHT22;25592;49.986;11.618;2024-03-08T09:43:00;8.80;92.90
39925;DHT22;25592;49.986;11.618;2024-03-08T09:45:49;8.80;92.20
39925;DHT22;25592;49.986;11.618;2024-03-08T09:48:34;9.00;92.30
39925;DHT22;25592;49.986;11.618;2024-03-08T09:51:28;9.20;92.80
39925;DHT22;25592;49.986;11.618;2024-03-08T09:54:13;9.30;92.00
39925;DHT22;25592;49.986;11.618;2024-03-08T09:57:07;9.40;92.10
39925;DHT22;25592;49.986;11.618;2024-03-08T09:59:54;9.50;92.10
39925;DHT22;25592;49.986;11.618;2024-03-08T10:02:39;9.60;91.70
39925;DHT22;25592;49.986;11.618;2024-03-08T10:05:25;9.60;91.40
39925;DHT22;25592;49.986;11.618;2024-03-08T10:08:10;9.60;91.60
39925;DHT22;25592;49.986;11.618;2024-03-08T10:10:56;9.70;91.50
39925;DHT22;25592;49.986;11.618;2024-03-08T10:13:47;9.90;91.60
39925;DHT22;25592;49.986;11.618;2024-03-08T10:16:33;10.10;91.00
39925;DHT22;25592;49.986;11.618;2024-03-08T10:19:20;10.00;91.00
39925;DHT22;25592;49.986;11.618;2024-03-08T10:22:07;9.90;90.80
39925;DHT22;25592;49.986;11.618;2024-03-08T10:25:00;10.10;91.30
39925;DHT22;25592;49.986;11.618;2024-03-08T10:27:45;10.30;90.70
39925;DHT22;25592;49.986;11.618;2024-03-08T10:33:23;10.50;90.10
39925;DHT22;25592;49.986;11.618;2024-03-08T10:36:09;10.30;90.50
39925;DHT22;25592;49.986;11.618;2024-03-08T10:38:56;10.50;90.40
39925;DHT22;25592;49.986;11.618;2024-03-08T10:41:45;10.60;90.90
39925;DHT22;25592;49.986;11.618;2024-03-08T10:45:14;10.80;90.60
39925;DHT22;25592;49.986;11.618;2024-03-08T10:48:08;10.90;90.40
39925;DHT22;25592;49.986;11.618;2024-03-08T10:50:57;11.20;90.50
39925;DHT22;25592;49.986;11.618;2024-03-08T10:53:42;11.40;90.00
39925;DHT22;25592;49.986;11.618;2024-03-08T10:56:29;11.40;90.00
39925;DHT22;25592;49.986;11.618;2024-03-08T10:59:15;11.20;88.50
39925;DHT22;25592;49.986;11.618;2024-03-08T11:02:02;11.50;89.30
39925;DHT22;25592;49.986;11.618;2024-03-08T11:04:50;11.80;90.00
39925;DHT22;25592;49.986;11.618;2024-03-08T11:07:42;11.90;89.50
39925;DHT22;25592;49.986;11.618;2024-03-08T11:10:28;12.10;89.10
39925;DHT22;25592;49.986;11.618;2024-03-08T11:13:35;11.90;88.00
39925;DHT22;25592;49.986;11.618;2024-03-08T11:22:03;12.20;87.20
39925;DHT22;25592;49.986;11.618;2024-03-08T11:24:49;12.20;87.10
39925;DHT22;25592;49.986;11.618;2024-03-08T11:27:36;12.10;88.00
39925;DHT22;25592;49.986;11.618;2024-03-08T11:30:22;12.20;87.50
39925;DHT22;25592;49.986;11.618;2024-03-08T11:33:13;12.40;86.80
39925;DHT22;25592;49.986;11.618;2024-03-08T11:36:09;12.40;87.20
39925;DHT22;25592;49.986;11.618;2024-03-08T11:38:57;12.50;86.10
39925;DHT22;25592;49.986;11.618;2024-03-08T11:41:43;12.60;86.10
39925;DHT22;25592;49.986;11.618;2024-03-08T11:44:30;12.60;86.70
39925;DHT22;25592;49.986;11.618;2024-03-08T11:47:16;12.60;85.60
39925;DHT22;25592;49.986;11.618;2024-03-08T11:50:02;12.70;85.60
39925;DHT22;25592;49.986;11.618;2024-03-08T11:52:49;13.00;85.90
39925;DHT22;25592;49.986;11.618;2024-03-08T11:55:35;13.50;85.70
39925;DHT22;25592;49.986;11.618;2024-03-08T11:58:21;13.60;84.60
39925;DHT22;25592;49.986;11.618;2024-03-08T12:01:10;13.10;83.90
39925;DHT22;25592;49.986;11.618;2024-03-08T12:03:58;12.90;85.20
39925;DHT22;25592;49.986;11.618;2024-03-08T12:06:49;13.10;85.50
39925;DHT22;25592;49.986;11.618;2024-03-08T12:09:38;13.20;85.10
39925;DHT22;25592;49.986;11.618;2024-03-08T12:12:24;13.20;84.50
39925;DHT22;25592;49.986;11.618;2024-03-08T12:15:10;13.40;85.30
39925;DHT22;25592;49.986;11.618;2024-03-08T12:17:56;13.60;83.80
39925;DHT22;25592;49.986;11.618;2024-03-08T12:20:43;13.40;82.60
39925;DHT22;25592;49.986;11.618;2024-03-08T12:23:35;13.30;84.60
39925;DHT22;25592;49.986;11.618;2024-03-08T12:26:24;13.30;84.60
39925;DHT22;25592;49.986;11.618;2024-03-08T12:29:22;13.30;83.10
39925;DHT22;25592;49.986;11.618;2024-03-08T12:32:09;13.20;82.60
39925;DHT22;25592;49.986;11.618;2024-03-08T12:34:56;13.00;83.10
39925;DHT22;25592;49.986;11.618;2024-03-08T12:37:42;12.90;82.30
39925;DHT22;25592;49.986;11.618;2024-03-08T12:40:31;12.70;83.20
39925;DHT22;25592;49.986;11.618;2024-03-08T12:43:17;12.90;84.00
39925;DHT22;25592;49.986;11.618;2024-03-08T12:46:03;12.90;83.10
39925;DHT22;25592;49.986;11.618;2024-03-08T12:48:52;12.80;83.50
39925;DHT22;25592;49.986;11.618;2024-03-08T12:51:39;12.80;83.30
39925;DHT22;25592;49.986;11.618;2024-03-08T12:54:24;12.50;83.60
39925;DHT22;25592;49.986;11.618;2024-03-08T12:57:10;12.60;84.10
39925;DHT22;25592;49.986;11.618;2024-03-08T12:59:55;12.60;83.90
39925;DHT22;25592;49.986;11.618;2024-03-08T13:02:41;12.70;83.40
39925;DHT22;25592;49.986;11.618;2024-03-08T13:05:27;12.80;83.90
39925;DHT22;25592;49.986;11.618;2024-03-08T13:08:13;12.90;83.60
39925;DHT22;25592;49.986;11.618;2024-03-08T13:10:59;12.80;84.00
39925;DHT22;25592;49.986;11.618;2024-03-08T13:13:45;12.60;83.40
39925;DHT22;25592;49.986;11.618;2024-03-08T13:16:30;12.70;83.30
39925;DHT22;25592;49.986;11.618;2024-03-08T13:19:16;12.40;83.20
39925;DHT22;25592;49.986;11.618;2024-03-08T13:22:02;12.50;84.00
39925;DHT22;25592;49.986;11.618;2024-03-08T13:24:50;12.90;84.90
39925;DHT22;25592;49.986;11.618;2024-03-08T13:27:41;13.20;83.10
39925;DHT22;25592;49.986;11.618;2024-03-08T13:30:27;13.20;81.90
39925;DHT22;25592;49.986;11.618;2024-03-08T13:33:13;12.80;82.40
39925;DHT22;25592;49.986;11.618;2024-03-08T13:35:59;12.80;82.60
39925;DHT22;25592;49.986;11.618;2024-03-08T13:38:49;12.80;82.60
39925;DHT22;25592;49.986;11.618;2024-03-08T13:41:35;13.10;82.70
39925;DHT22;25592;49.986;11.618;2024-03-08T13:44:20;13.40;82.10
39925;DHT22;25592;49.986;11.618;2024-03-08T13:47:06;13.40;81.70
39925;DHT22;25592;49.986;11.618;2024-03-08T13:49:52;13.50;82.30
39925;DHT22;25592;49.986;11.618;2024-03-08T13:52:39;13.60;81.80
39925;DHT22;25592;49.986;11.618;2024-03-08T13:55:25;13.70;81.20
39925;DHT22;25592;49.986;11.618;2024-03-08T13:58:12;13.20;80.90
39925;DHT22;25592;49.986;11.618;2024-03-08T14:00:59;13.10;82.40
39925;DHT22;25592;49.986;11.618;2024-03-08T14:03:45;13.40;82.10
39925;DHT22;25592;49.986;11.618;2024-03-08T14:06:31;13.40;81.70
39925;DHT22;25592;49.986;11.618;2024-03-08T14:09:16;13.60;82.30
39925;DHT22;25592;49.986;11.618;2024-03-08T14:12:02;14.00;82.10
39925;DHT22;25592;49.986;11.618;2024-03-08T14:14:48;14.10;80.40
39925;DHT22;25592;49.986;11.618;2024-03-08T14:17:34;14.00;81.90
39925;DHT22;25592;49.986;11.618;2024-03-08T14:20:19;14.10;81.20
39925;DHT22;25592;49.986;11.618;2024-03-08T14:23:05;14.20;81.30
39925;DHT22;25592;49.986;11.618;2024-03-08T14:25:53;14.30;80.60
39925;DHT22;25592;49.986;11.618;2024-03-08T14:28:39;14.50;82.20
39925;DHT22;25592;49.986;11.618;2024-03-08T14:31:24;14.50;80.60
39925;DHT22;25592;49.986;11.618;2024-03-08T14:34:11;14.40;79.70
39925;DHT22;25592;49.986;11.618;2024-03-08T14:37:00;14.20;80.10
39925;DHT22;25592;49.986;11.618;2024-03-08T14:39:49;14.00;79.20
39925;DHT22;25592;49.986;11.618;2024-03-08T14:42:37;13.90;79.00
39925;DHT22;25592;49.986;11.618;2024-03-08T14:45:22;13.80;79.60
39925;DHT22;25592;49.986;11.618;2024-03-08T14:48:09;13.90;79.20
39925;DHT22;25592;49.986;11.618;2024-03-08T14:50:57;13.70;80.10
39925;DHT22;25592;49.986;11.618;2024-03-08T14:53:42;13.90;79.60
39925;DHT22;25592;49.986;11.618;2024-03-08T14:56:30;13.80;78.50
39925;DHT22;25592;49.986;11.618;2024-03-08T14:59:17;14.00;79.30
39925;DHT22;25592;49.986;11.618;2024-03-08T15:02:02;14.00;78.50
39925;DHT22;25592;49.986;11.618;2024-03-08T15:04:51;13.60;78.50
39925;DHT22;25592;49.986;11.618;2024-03-08T15:07:43;13.60;79.20
39925;DHT22;25592;49.986;11.618;2024-03-08T15:10:28;13.80;78.80
39925;DHT22;25592;49.986;11.618;2024-03-08T15:13:16;13.80;78.30
39925;DHT22;25592;49.986;11.618;2024-03-08T15:16:08;13.90;78.90
39925;DHT22;25592;49.986;11.618;2024-03-08T15:18:53;14.10;79.00
39925;DHT22;25592;49.986;11.618;2024-03-08T15:21:40;13.80;78.50
39925;DHT22;25592;49.986;11.618;2024-03-08T15:24:25;13.80;79.00
39925;DHT22;25592;49.986;11.618;2024-03-08T15:27:12;13.70;78.10
39925;DHT22;25592;49.986;11.618;2024-03-08T15:29:58;13.60;78.70
39925;DHT22;25592;49.986;11.618;2024-03-08T15:32:45;13.60;78.10
39925;DHT22;25592;49.986;11.618;2024-03-08T15:35:31;13.50;78.30
39925;DHT22;25592;49.986;11.618;2024-03-08T15:38:17;13.50;78.70
39925;DHT22;25592;49.986;11.618;2024-03-08T15:41:06;13.40;79.00
39925;DHT22;25592;49.986;11.618;2024-03-08T15:43:56;13.50;78.80
39925;DHT22;25592;49.986;11.618;2024-03-08T15:46:41;13.40;79.50
39925;DHT22;25592;49.986;11.618;2024-03-08T15:49:26;13.40;79.10
39925;DHT22;25592;49.986;11.618;2024-03-08T15:52:13;13.40;79.40
39925;DHT22;25592;49.986;11.618;2024-03-08T15:54:59;13.30;78.90
39925;DHT22;25592;49.986;11.618;2024-03-08T15:57:44;12.90;79.30
39925;DHT22;25592;49.986;11.618;2024-03-08T16:00:29;12.70;80.10
39925;DHT22;25592;49.986;11.618;2024-03-08T16:03:21;12.80;80.00
39925;DHT22;25592;49.986;11.618;2024-03-08T16:06:07;12.80;80.10
39925;DHT22;25592;49.986;11.618;2024-03-08T16:08:52;12.60;79.60
39925;DHT22;25592;49.986;11.618;2024-03-08T16:11:38;12.60;80.70
39925;DHT22;25592;49.986;11.618;2024-03-08T16:14:24;12.50;80.40
39925;DHT22;25592;49.986;11.618;2024-03-08T16:17:10;12.40;81.40
39925;DHT22;25592;49.986;11.618;2024-03-08T16:19:55;12.50;81.60
39925;DHT22;25592;49.986;11.618;2024-03-08T16:22:43;12.70;81.80
39925;DHT22;25592;49.986;11.618;2024-03-08T16:25:28;12.90;81.20
39925;DHT22;25592;49.986;11.618;2024-03-08T16:28:14;12.90;80.70
39925;DHT22;25592;49.986;11.618;2024-03-08T16:31:00;12.90;80.50
39925;DHT22;25592;49.986;11.618;2024-03-08T16:33:45;12.80;80.50
39925;DHT22;25592;49.986;11.618;2024-03-08T16:36:32;12.50;81.20
39925;DHT22;25592;49.986;11.618;2024-03-08T16:39:18;12.60;81.60
39925;DHT22;25592;49.986;11.618;2024-03-08T16:42:03;12.60;81.60
39925;DHT22;25592;49.986;11.618;2024-03-08T16:44:52;12.40;81.20
39925;DHT22;25592;49.986;11.618;2024-03-08T16:47:38;12.30;82.50
39925;DHT22;25592;49.986;11.618;2024-03-08T16:50:25;12.10;81.70
39925;DHT22;25592;49.986;11.618;2024-03-08T16:53:12;12.10;82.90
39925;DHT22;25592;49.986;11.618;2024-03-08T16:55:57;12.00;82.70
39925;DHT22;25592;49.986;11.618;2024-03-08T16:58:44;11.80;81.80
39925;DHT22;25592;49.986;11.618;2024-03-08T17:01:30;11.70;82.70
39925;DHT22;25592;49.986;11.618;2024-03-08T17:04:15;11.40;82.10
39925;DHT22;25592;49.986;11.618;2024-03-08T17:07:04;11.20;82.70
39925;DHT22;25592;49.986;11.618;2024-03-08T17:09:51;11.10;83.00
39925;DHT22;25592;49.986;11.618;2024-03-08T17:12:36;10.90;82.80
39925;DHT22;25592;49.986;11.618;2024-03-08T17:15:22;11.00;83.10
39925;DHT22;25592;49.986;11.618;2024-03-08T17:18:08;10.70;83.80
39925;DHT22;25592;49.986;11.618;2024-03-08T17:20:55;10.60;83.40
39925;DHT22;25592;49.986;11.618;2024-03-08T17:23:41;10.70;84.50
39925;DHT22;25592;49.986;11.618;2024-03-08T17:26:27;10.60;84.30
39925;DHT22;25592;49.986;11.618;2024-03-08T17:29:13;10.60;84.00
39925;DHT22;25592;49.986;11.618;2024-03-08T17:31:59;10.40;84.10
39925;DHT22;25592;49.986;11.618;2024-03-08T17:34:44;10.50;85.20